Time;durP1;ratioP1;P1;durP2;ratioP2;P2;SDS_P1;SDS_P2;PMS_P1;PMS_P2;Temp;Humidity;BMP_temperature;BMP_pressure;BME280_temperature;BME280_humidity;BME280_pressure;Samples;Min_cycle;Max_cycle;Signal;HPM_P1;HPM_P2
2021/12/01 00:00:48;;;;;;;29.33;19.90;;;;;;;11.69;86.91;99906.97;5053459;28;20200;-73
2021/12/01 00:03:15;;;;;;;22.13;15.67;;;;;;;11.56;86.82;99914.78;5054717;28;20200;-73
2021/12/01 00:05:43;;;;;;;24.20;17.20;;;;;;;11.56;86.92;99907.78;5053398;28;20210;-73
2021/12/01 00:08:10;;;;;;;26.67;18.47;;;;;;;11.57;86.98;99893.72;5053354;28;20291;-73
2021/12/01 00:10:38;;;;;;;24.20;15.73;;;;;;;11.55;87.07;99887.75;5054718;28;20220;-73
2021/12/01 00:13:06;;;;;;;21.40;15.97;;;;;;;11.60;86.88;99884.84;5054697;28;20271;-73
2021/12/01 00:15:33;;;;;;;19.23;13.93;;;;;;;11.60;87.13;99883.06;5054570;28;20345;-73
2021/12/01 00:18:00;;;;;;;17.47;12.63;;;;;;;11.62;87.00;99863.81;5054512;28;20207;-73
2021/12/01 00:20:27;;;;;;;17.60;11.03;;;;;;;11.57;87.36;99857.06;5053049;28;20206;-73
2021/12/01 00:22:55;;;;;;;13.60;10.73;;;;;;;11.56;87.44;99857.19;5054275;28;20694;-73
2021/12/01 00:25:23;;;;;;;14.63;9.07;;;;;;;11.65;87.90;99859.22;5052637;28;20204;-73
2021/12/01 00:27:50;;;;;;;9.57;7.37;;;;;;;11.48;87.79;99836.75;5052331;28;20310;-73
2021/12/01 00:30:18;;;;;;;10.93;8.70;;;;;;;11.63;87.83;99834.91;5052300;28;20309;-73
2021/12/01 00:32:45;;;;;;;12.40;7.57;;;;;;;11.71;87.80;99824.81;5052651;28;20206;-73
2021/12/01 00:35:11;;;;;;;11.50;6.37;;;;;;;11.70;87.60;99812.66;5054217;28;20187;-74
2021/12/01 00:37:40;;;;;;;10.40;7.80;;;;;;;11.82;87.52;99816.25;5052737;28;20200;-74
2021/12/01 00:40:11;;;;;;;10.93;9.03;;;;;;;11.80;87.43;99813.72;5052801;28;20204;-74
2021/12/01 00:42:38;;;;;;;8.73;7.20;;;;;;;11.76;87.68;99798.31;5054074;28;20199;-74
2021/12/01 00:45:11;;;;;;;6.27;5.27;;;;;;;11.81;87.47;99791.00;5053985;28;20590;-74
2021/12/01 00:47:43;;;;;;;7.87;7.00;;;;;;;11.85;87.61;99789.88;5053950;28;20202;-73
2021/12/01 00:50:10;;;;;;;9.70;6.40;;;;;;;11.83;87.54;99781.25;5054079;28;20196;-73
2021/12/01 00:52:36;;;;;;;6.27;5.00;;;;;;;11.77;87.75;99776.44;5054024;28;20192;-73
2021/12/01 00:55:03;;;;;;;7.20;5.43;;;;;;;11.79;87.73;99777.19;5053129;28;20227;-73
2021/12/01 00:57:31;;;;;;;7.37;5.57;;;;;;;11.77;87.84;99753.69;5053571;28;20192;-73
2021/12/01 00:59:58;;;;;;;7.47;4.50;;;;;;;11.74;87.93;99766.16;5053806;28;20270;-73
2021/12/01 01:02:24;;;;;;;4.57;3.60;;;;;;;11.75;87.93;99746.88;5052254;28;20216;-74
2021/12/01 01:04:50;;;;;;;5.93;4.47;;;;;;;11.75;87.99;99749.50;5052349;28;20302;-74
2021/12/01 01:07:17;;;;;;;4.97;4.10;;;;;;;11.75;88.04;99749.50;5053567;28;20269;-74
2021/12/01 01:09:44;;;;;;;5.13;3.90;;;;;;;11.78;87.95;99744.91;5053502;28;20196;-74
2021/12/01 01:17:42;;;;;;;2.70;2.23;;;;;;;11.67;88.37;99733.44;5051942;28;20273;-74
2021/12/01 01:20:12;;;;;;;3.57;3.00;;;;;;;11.75;88.10;99736.41;5053351;28;20196;-74
2021/12/01 01:22:39;;;;;;;3.47;3.17;;;;;;;11.84;87.95;99722.69;5051712;28;20242;-74
2021/12/01 01:25:08;;;;;;;3.90;3.50;;;;;;;11.93;87.53;99717.69;5053356;28;20536;-74
2021/12/01 01:27:36;;;;;;;3.43;3.13;;;;;;;11.87;87.58;99712.03;5053173;28;20202;-74
2021/12/01 01:30:04;;;;;;;2.70;2.47;;;;;;;11.72;87.88;99700.78;5053234;28;20196;-74
2021/12/01 01:32:33;;;;;;;4.13;3.27;;;;;;;11.82;87.94;99695.78;5051740;28;20258;-74
2021/12/01 01:34:59;;;;;;;3.37;3.03;;;;;;;11.89;87.49;99689.19;5051608;28;20673;-74
2021/12/01 01:37:26;;;;;;;2.80;2.60;;;;;;;11.82;87.64;99698.41;5053061;28;20273;-74
2021/12/01 01:39:52;;;;;;;3.13;2.70;;;;;;;11.91;87.45;99682.06;5052967;28;20195;-74
2021/12/01 01:42:19;;;;;;;3.17;2.80;;;;;;;11.79;87.64;99672.41;5052842;28;20218;-74
2021/12/01 01:44:46;;;;;;;3.80;3.50;;;;;;;11.81;87.54;99660.06;5052890;28;20192;-74
2021/12/01 01:47:13;;;;;;;4.53;2.80;;;;;;;11.78;87.53;99655.03;5052772;28;20648;-73
2021/12/01 01:49:48;;;;;;;3.00;2.50;;;;;;;11.79;87.61;99654.94;5052796;28;20802;-73
2021/12/01 01:52:14;;;;;;;3.40;2.87;;;;;;;11.83;87.50;99642.44;5051409;28;20293;-73
2021/12/01 01:54:41;;;;;;;2.93;2.27;;;;;;;11.75;87.64;99652.59;5052630;28;20198;-73
2021/12/01 01:57:07;;;;;;;3.07;2.77;;;;;;;11.89;87.35;99648.13;5051365;28;20200;-73
2021/12/01 01:59:34;;;;;;;3.00;2.13;;;;;;;11.85;87.33;99643.19;5052691;28;20202;-73
2021/12/01 02:02:01;;;;;;;3.97;2.57;;;;;;;11.89;87.02;99637.63;5052485;28;20287;-74
2021/12/01 02:04:33;;;;;;;2.97;1.93;;;;;;;11.89;87.11;99627.16;5051041;28;20324;-74
2021/12/01 02:07:00;;;;;;;1.87;1.70;;;;;;;11.83;86.84;99626.72;5052316;28;20274;-74
2021/12/01 02:09:26;;;;;;;2.37;2.17;;;;;;;11.87;86.71;99626.44;5051007;28;20232;-74
2021/12/01 02:11:59;;;;;;;2.00;1.80;;;;;;;11.82;86.96;99604.13;5052456;28;20670;-73
2021/12/01 02:14:27;;;;;;;1.57;1.47;;;;;;;11.83;86.91;99603.16;5052416;28;20184;-74
2021/12/01 02:16:56;;;;;;;2.03;1.90;;;;;;;11.81;86.82;99597.19;5052383;28;20196;-74
2021/12/01 02:19:23;;;;;;;2.37;1.90;;;;;;;11.75;86.97;99592.38;5050855;28;20192;-74
2021/12/01 02:21:51;;;;;;;2.53;2.17;;;;;;;11.74;86.84;99583.69;5051972;28;20235;-74
2021/12/01 02:24:22;;;;;;;3.17;1.70;;;;;;;11.81;86.73;99579.72;5050770;28;20223;-74
2021/12/01 02:26:51;;;;;;;2.20;1.87;;;;;;;11.79;86.81;99572.91;5052184;28;20188;-74
2021/12/01 02:29:20;;;;;;;2.63;2.20;;;;;;;11.81;86.68;99561.38;5052054;28;20191;-74
2021/12/01 02:31:48;;;;;;;2.23;2.03;;;;;;;11.80;86.44;99554.44;5050681;28;20200;-74
2021/12/01 02:34:18;;;;;;;3.07;2.30;;;;;;;11.79;86.43;99551.97;5052093;28;20204;-74
2021/12/01 02:36:47;;;;;;;2.63;2.13;;;;;;;11.67;86.55;99544.91;5050644;28;20667;-74
2021/12/01 02:39:16;;;;;;;2.20;2.00;;;;;;;11.64;86.66;99526.78;5052235;28;20196;-74
2021/12/01 02:41:44;;;;;;;1.30;1.20;;;;;;;11.59;86.55;99509.66;5051892;28;20191;-74
2021/12/01 02:44:12;;;;;;;3.20;2.60;;;;;;;11.67;86.46;99519.56;5052052;28;20674;-74
2021/12/01 02:46:39;;;;;;;3.00;2.63;;;;;;;11.62;86.56;99515.59;5052018;28;20200;-74
2021/12/01 02:49:05;;;;;;;2.33;2.13;;;;;;;11.57;86.76;99515.94;5051919;28;20223;-74
2021/12/01 02:51:33;;;;;;;2.30;2.10;;;;;;;11.61;86.58;99504.28;5050465;28;20206;-74
2021/12/01 02:54:00;;;;;;;3.03;2.60;;;;;;;11.54;86.36;99496.00;5051861;28;20250;-74
2021/12/01 02:56:32;;;;;;;2.70;2.50;;;;;;;11.45;86.77;99495.84;5050532;28;20602;-74
2021/12/01 02:59:01;;;;;;;3.37;2.40;;;;;;;11.43;86.73;99488.06;5050452;28;20555;-74
2021/12/01 03:01:29;;;;;;;2.50;2.30;;;;;;;11.43;86.88;99488.06;5051725;28;20222;-74
2021/12/01 03:03:59;;;;;;;3.00;2.70;;;;;;;11.44;86.66;99481.06;5051574;28;20214;-74
2021/12/01 03:06:27;;;;;;;2.83;2.17;;;;;;;11.41;86.74;99474.25;5051805;28;20592;-75
2021/12/01 03:08:55;;;;;;;2.23;2.03;;;;;;;11.33;86.85;99468.72;5050282;28;20214;-74
2021/12/01 03:11:21;;;;;;;2.77;2.57;;;;;;;11.37;86.59;99472.81;5051585;28;20246;-74
2021/12/01 03:13:49;;;;;;;2.77;2.57;;;;;;;11.39;86.54;99460.47;5050145;28;20674;-74
2021/12/01 03:16:16;;;;;;;3.10;2.20;;;;;;;11.31;86.37;99461.94;5051625;28;20196;-74
2021/12/01 03:18:43;;;;;;;3.20;2.60;;;;;;;11.39;86.08;99452.59;5052193;28;20202;-73
2021/12/01 03:21:11;;;;;;;2.33;2.13;;;;;;;11.32;86.28;99446.09;5055656;28;20257;-74
2021/12/01 03:23:37;;;;;;;3.37;2.33;;;;;;;11.32;86.11;99437.41;5055319;28;20220;-73
2021/12/01 03:26:04;;;;;;;3.50;2.10;;;;;;;11.24;86.14;99442.34;5055578;28;20945;-74
2021/12/01 03:28:31;;;;;;;2.43;2.10;;;;;;;11.28;86.11;99423.72;5055491;28;20223;-74
2021/12/01 03:30:59;;;;;;;2.87;2.10;;;;;;;11.24;85.93;99424.88;5055483;28;20194;-74
2021/12/01 03:33:26;;;;;;;2.40;2.20;;;;;;;11.26;85.80;99419.56;5055287;28;20190;-74
2021/12/01 03:35:54;;;;;;;1.77;1.67;;;;;;;11.22;85.76;99410.22;5055372;28;20274;-74
2021/12/01 03:38:23;;;;;;;2.07;1.90;;;;;;;11.25;85.79;99403.00;5055445;28;20279;-74
2021/12/01 03:40:50;;;;;;;2.07;1.67;;;;;;;11.22;85.72;99398.00;5053791;28;20207;-74
2021/12/01 03:43:16;;;;;;;3.40;2.47;;;;;;;11.14;85.69;99382.00;5053756;28;20218;-74
2021/12/01 03:45:44;;;;;;;2.57;1.40;;;;;;;11.24;85.73;99387.41;5055176;28;20200;-74
2021/12/01 03:48:12;;;;;;;2.37;1.93;;;;;;;11.19;85.16;99385.13;5055136;28;20214;-74
2021/12/01 03:50:40;;;;;;;1.97;1.77;;;;;;;11.21;85.52;99379.78;5053675;28;20206;-74
2021/12/01 03:53:07;;;;;;;2.37;2.17;;;;;;;11.19;85.34;99379.06;5055068;28;20203;-74
2021/12/01 03:55:35;;;;;;;1.77;1.67;;;;;;;11.19;85.21;99358.97;5055081;28;20196;-74
2021/12/01 03:58:02;;;;;;;3.60;1.97;;;;;;;11.16;85.07;99356.56;5053544;28;20203;-74
2021/12/01 04:00:28;;;;;;;1.90;1.70;;;;;;;11.17;85.28;99350.41;5054889;28;20679;-74
2021/12/01 04:02:56;;;;;;;2.80;2.13;;;;;;;11.20;84.91;99360.66;5053493;28;20199;-74
2021/12/01 04:05:24;;;;;;;2.63;2.40;;;;;;;11.20;84.90;99354.56;5054824;28;20192;-74
2021/12/01 04:07:50;;;;;;;2.80;2.50;;;;;;;11.08;84.92;99348.41;5053332;28;20192;-74
2021/12/01 04:10:19;;;;;;;2.97;2.47;;;;;;;11.20;84.88;99338.88;5054645;28;20191;-74
2021/12/01 04:12:46;;;;;;;1.93;1.73;;;;;;;11.09;85.04;99342.25;5054684;28;20664;-74
2021/12/01 04:15:14;;;;;;;2.30;1.80;;;;;;;11.07;84.88;99322.34;5053218;28;20196;-74
2021/12/01 04:17:42;;;;;;;2.60;1.80;;;;;;;11.07;84.99;99319.75;5054638;28;20193;-73
2021/12/01 04:20:11;;;;;;;2.40;1.60;;;;;;;11.10;84.76;99315.13;5054619;28;20589;-74
2021/12/01 04:22:40;;;;;;;3.77;2.30;;;;;;;11.12;84.70;99326.31;5054216;28;20228;-74
2021/12/01 04:25:07;;;;;;;1.97;1.63;;;;;;;11.02;84.56;99280.84;5054399;28;20220;-74
2021/12/01 04:27:34;;;;;;;1.60;1.50;;;;;;;10.94;84.59;99285.78;5054355;28;20228;-74
2021/12/01 04:30:00;;;;;;;2.53;2.30;;;;;;;11.04;84.24;99276.34;5054084;28;20254;-74
2021/12/01 04:32:27;;;;;;;2.90;2.20;;;;;;;11.03;84.19;99261.59;5054322;28;20227;-74
2021/12/01 04:34:53;;;;;;;2.70;2.50;;;;;;;11.09;83.87;99271.63;5054410;28;20195;-74
2021/12/01 04:37:20;;;;;;;2.60;2.40;;;;;;;10.98;83.99;99256.69;5052844;28;20200;-74
2021/12/01 04:39:48;;;;;;;2.70;2.50;;;;;;;11.08;83.84;99249.03;5054117;28;20203;-74
2021/12/01 04:42:16;;;;;;;2.87;2.67;;;;;;;11.26;83.42;99231.19;5054199;28;20204;-74
2021/12/01 04:44:43;;;;;;;2.07;1.57;;;;;;;11.05;83.17;99228.31;5054011;28;20533;-74
2021/12/01 04:47:13;;;;;;;2.07;1.87;;;;;;;11.07;82.93;99233.44;5053928;28;20195;-74
2021/12/01 04:49:40;;;;;;;2.67;2.37;;;;;;;11.11;82.82;99222.66;5052491;28;20198;-73
2021/12/01 04:52:08;;;;;;;2.90;1.87;;;;;;;11.02;83.06;99220.69;5053931;28;20191;-74
2021/12/01 04:54:34;;;;;;;4.23;2.83;;;;;;;11.00;83.05;99217.34;5053872;28;20184;-74
2021/12/01 04:57:05;;;;;;;3.57;2.37;;;;;;;10.98;82.91;99208.78;5053836;28;20204;-74
2021/12/01 04:59:33;;;;;;;2.40;2.20;;;;;;;11.02;82.91;99199.78;5052506;28;20204;-74
2021/12/01 05:02:00;;;;;;;3.77;2.80;;;;;;;11.07;82.69;99187.19;5053677;28;20706;-74
2021/12/01 05:04:26;;;;;;;2.83;2.63;;;;;;;10.96;82.67;99172.28;5052356;28;20254;-73
2021/12/01 05:06:53;;;;;;;2.80;2.60;;;;;;;10.99;82.85;99176.44;5053663;28;20198;-74
2021/12/01 05:09:19;;;;;;;3.07;2.70;;;;;;;11.00;83.00;99160.66;5053559;28;20670;-74
2021/12/01 05:11:46;;;;;;;3.00;2.77;;;;;;;11.07;82.85;99160.19;5052189;28;20701;-74
2021/12/01 05:14:15;;;;;;;2.90;2.70;;;;;;;10.86;83.18;99142.53;5053602;28;20250;-74
2021/12/01 05:16:43;;;;;;;2.60;2.40;;;;;;;10.82;83.21;99155.91;5053433;28;20258;-74
2021/12/01 05:19:11;;;;;;;3.60;2.77;;;;;;;10.86;83.19;99146.91;5052040;28;20195;-74
2021/12/01 05:21:38;;;;;;;4.40;3.00;;;;;;;10.79;83.27;99143.91;5051844;28;20211;-74
2021/12/01 05:24:05;;;;;;;2.53;2.03;;;;;;;10.70;83.85;99130.66;5052026;28;20204;-74
2021/12/01 05:26:32;;;;;;;2.90;2.60;;;;;;;10.79;83.63;99123.00;5051807;28;20200;-74
2021/12/01 05:28:58;;;;;;;2.43;2.23;;;;;;;10.71;84.10;99127.94;5051720;28;20207;-74
2021/12/01 05:31:26;;;;;;;2.13;1.73;;;;;;;10.52;84.27;99127.59;5053227;28;20192;-74
2021/12/01 05:33:53;;;;;;;4.63;2.63;;;;;;;10.68;84.20;99122.09;5053233;28;20192;-74
2021/12/01 05:36:20;;;;;;;2.53;2.33;;;;;;;10.53;84.18;99123.22;5053112;28;20192;-74
2021/12/01 05:38:47;;;;;;;2.73;2.40;;;;;;;10.56;84.40;99099.44;5053049;28;20194;-74
2021/12/01 05:41:14;;;;;;;3.97;2.43;;;;;;;10.58;84.62;99110.66;5052502;28;20199;-74
2021/12/01 05:43:40;;;;;;;3.57;2.27;;;;;;;10.61;84.48;99111.22;5052743;28;20202;-74
2021/12/01 05:46:07;;;;;;;2.67;2.40;;;;;;;10.55;84.64;99098.63;5052956;28;20286;-74
2021/12/01 05:48:35;;;;;;;2.30;2.10;;;;;;;10.54;84.41;99089.13;5053009;28;20273;-74
2021/12/01 05:51:01;;;;;;;1.57;1.47;;;;;;;10.39;84.77;99071.91;5052836;28;20200;-74
2021/12/01 05:53:28;;;;;;;2.93;2.57;;;;;;;10.47;84.80;99089.69;5052789;28;20192;-73
2021/12/01 05:55:55;;;;;;;1.93;1.83;;;;;;;10.38;85.25;99078.09;5052891;28;20196;-73
2021/12/01 05:58:21;;;;;;;3.13;2.13;;;;;;;10.50;84.96;99076.38;5051490;28;20208;-73
2021/12/01 06:00:48;;;;;;;2.07;1.87;;;;;;;10.47;84.79;99063.53;5051267;28;20196;-74
2021/12/01 06:03:14;;;;;;;2.23;2.03;;;;;;;10.38;84.96;99057.19;5052603;28;20745;-74
2021/12/01 06:05:43;;;;;;;2.50;2.30;;;;;;;10.37;85.02;99061.59;5052566;28;20751;-74
2021/12/01 06:08:10;;;;;;;2.30;2.10;;;;;;;10.31;85.12;99064.63;5051252;28;20192;-74
2021/12/01 06:10:36;;;;;;;2.17;1.70;;;;;;;10.28;84.96;99043.13;5052476;28;20206;-74
2021/12/01 06:13:04;;;;;;;2.07;1.90;;;;;;;10.28;84.99;99046.56;5052328;28;20276;-75
2021/12/01 06:15:31;;;;;;;2.17;1.60;;;;;;;10.29;85.10;99036.97;5052301;28;20269;-74
2021/12/01 06:17:58;;;;;;;1.70;1.60;;;;;;;10.28;85.07;99041.34;5052385;28;20563;-75
2021/12/01 06:20:25;;;;;;;1.23;1.13;;;;;;;10.19;85.09;99009.84;5052296;28;20200;-75
2021/12/01 06:22:52;;;;;;;1.77;1.43;;;;;;;10.18;85.16;99003.78;5052007;28;20228;-75
2021/12/01 06:25:20;;;;;;;2.60;2.00;;;;;;;10.29;85.17;99003.00;5052074;28;20298;-75
2021/12/01 06:27:46;;;;;;;2.67;1.53;;;;;;;10.19;85.07;99007.22;5052192;28;20196;-75
2021/12/01 06:30:13;;;;;;;2.97;1.90;;;;;;;10.27;84.90;98992.66;5052139;28;20207;-75
2021/12/01 06:32:40;;;;;;;1.20;1.10;;;;;;;10.08;85.15;98989.66;5051820;28;20191;-75
2021/12/01 06:35:07;;;;;;;1.60;1.50;;;;;;;10.21;85.23;98976.59;5051918;28;20393;-75
2021/12/01 06:37:33;;;;;;;1.50;1.33;;;;;;;10.44;84.66;98989.66;5051869;28;20196;-75
2021/12/01 06:40:01;;;;;;;1.33;0.80;;;;;;;10.22;84.76;98973.88;5051864;28;20200;-75
2021/12/01 06:42:27;;;;;;;2.67;1.67;;;;;;;10.21;84.74;98981.84;5051962;28;20198;-75
2021/12/01 06:44:54;;;;;;;0.90;0.90;;;;;;;10.21;84.96;98972.22;5051782;28;20230;-75
2021/12/01 06:47:20;;;;;;;1.10;1.07;;;;;;;10.18;85.04;98972.44;5051901;28;20204;-75
2021/12/01 06:49:47;;;;;;;2.13;1.30;;;;;;;10.16;85.14;98979.53;5051857;28;20699;-75
2021/12/01 06:52:13;;;;;;;1.70;1.30;;;;;;;10.18;85.35;98961.16;5051821;28;20191;-75
2021/12/01 06:54:40;;;;;;;0.80;0.60;;;;;;;10.07;85.55;98942.78;5051846;28;20188;-75
2021/12/01 06:57:08;;;;;;;1.10;0.80;;;;;;;10.15;85.27;98949.16;5051695;28;20210;-75
2021/12/01 06:59:34;;;;;;;1.30;1.00;;;;;;;10.19;85.12;98947.16;5050153;28;20204;-75
2021/12/01 07:02:01;;;;;;;1.13;0.80;;;;;;;10.19;85.28;98941.94;5049792;28;20230;-75
2021/12/01 07:04:29;;;;;;;1.93;1.20;;;;;;;10.20;84.98;98935.75;5050082;28;20219;-75
2021/12/01 07:06:56;;;;;;;1.20;1.03;;;;;;;10.29;84.96;98946.38;5051612;28;20192;-75
2021/12/01 07:09:24;;;;;;;1.30;1.20;;;;;;;10.22;85.24;98937.31;5050271;28;20723;-75
2021/12/01 07:11:50;;;;;;;0.90;0.90;;;;;;;10.22;85.53;98942.53;5051500;28;20200;-75
2021/12/01 07:14:18;;;;;;;1.00;1.00;;;;;;;10.19;85.24;98934.09;5050127;28;20230;-74
2021/12/01 07:16:45;;;;;;;1.10;1.00;;;;;;;10.29;85.18;98941.16;5051560;28;20274;-75
2021/12/01 07:19:11;;;;;;;1.30;1.20;;;;;;;10.26;85.14;98933.53;5050503;28;20282;-75
2021/12/01 07:21:37;;;;;;;1.00;0.90;;;;;;;10.38;85.14;98924.81;5050549;28;20206;-75
2021/12/01 07:24:06;;;;;;;1.40;1.30;;;;;;;10.33;85.07;98913.84;5048853;28;20648;-75
2021/12/01 07:26:32;;;;;;;0.93;0.83;;;;;;;10.23;85.38;98907.66;5048979;28;20203;-74
2021/12/01 07:28:59;;;;;;;1.63;1.17;;;;;;;10.30;85.23;98894.97;5049041;28;20573;-74
2021/12/01 07:31:27;;;;;;;1.03;1.00;;;;;;;10.30;85.32;98903.63;5049383;28;20218;-74
2021/12/01 07:33:53;;;;;;;1.70;1.60;;;;;;;10.38;85.50;98903.06;5049113;28;20198;-75
2021/12/01 07:36:20;;;;;;;1.40;1.30;;;;;;;10.32;85.47;98875.63;5047505;28;20217;-75
2021/12/01 07:38:47;;;;;;;1.00;0.70;;;;;;;10.28;85.58;98900.28;5048800;28;20274;-74
2021/12/01 07:41:14;;;;;;;2.47;1.33;;;;;;;10.31;85.52;98884.41;5048989;28;20200;-74
2021/12/01 07:43:40;;;;;;;1.10;1.07;;;;;;;10.30;85.57;98901.00;5048665;28;20192;-75
2021/12/01 07:46:07;;;;;;;1.00;1.00;;;;;;;10.20;86.26;98896.59;5048657;28;20299;-75
2021/12/01 07:48:36;;;;;;;1.23;1.13;;;;;;;10.44;85.92;98895.59;5047320;28;20214;-74
2021/12/01 07:51:03;;;;;;;0.80;0.80;;;;;;;10.40;85.73;98896.78;5043724;28;20200;-74
2021/12/01 07:53:30;;;;;;;1.40;1.30;;;;;;;10.41;85.88;98889.78;5027703;28;20711;-75
2021/12/01 07:55:56;;;;;;;1.27;1.17;;;;;;;10.39;85.85;98883.81;5027488;28;20204;-75
2021/12/01 07:58:23;;;;;;;1.77;1.67;;;;;;;10.47;85.66;98878.03;5028795;28;20944;-75
2021/12/01 08:00:49;;;;;;;0.80;0.80;;;;;;;10.30;86.10;98867.06;5028831;28;20217;-74
2021/12/01 08:03:16;;;;;;;1.40;1.30;;;;;;;10.37;86.13;98867.44;5028558;28;20615;-74
2021/12/01 08:05:43;;;;;;;1.13;1.10;;;;;;;10.42;86.08;98860.91;5030552;28;20222;-75
2021/12/01 08:08:11;;;;;;;1.77;1.67;;;;;;;10.42;86.29;98858.31;5030985;28;20315;-74
2021/12/01 08:10:37;;;;;;;0.87;0.87;;;;;;;10.30;86.85;98840.13;5030962;28;20212;-75
2021/12/01 08:13:05;;;;;;;2.20;2.00;;;;;;;10.36;86.17;98850.09;5032536;28;20220;-75
2021/12/01 08:15:32;;;;;;;1.67;1.57;;;;;;;10.36;86.13;98843.09;5032931;28;20283;-74
2021/12/01 08:17:59;;;;;;;2.10;1.87;;;;;;;10.41;86.67;98848.78;5030958;28;20204;-74
2021/12/01 08:20:26;;;;;;;2.40;1.30;;;;;;;10.41;86.37;98845.38;5032127;28;20196;-74
2021/12/01 08:22:54;;;;;;;2.00;1.90;;;;;;;10.48;86.29;98833.50;5041325;28;20311;-75
2021/12/01 08:25:21;;;;;;;1.90;1.80;;;;;;;10.49;86.32;98816.03;5051758;28;20586;-74
2021/12/01 08:27:49;;;;;;;2.27;2.07;;;;;;;10.55;86.17;98837.31;5051786;28;20202;-74
2021/12/01 08:30:16;;;;;;;2.13;1.93;;;;;;;10.52;86.46;98834.94;5051899;28;20188;-74
2021/12/01 08:32:45;;;;;;;1.93;1.40;;;;;;;10.54;86.14;98833.03;5050238;28;20211;-74
2021/12/01 08:35:12;;;;;;;2.50;2.00;;;;;;;10.77;85.72;98819.06;5051159;28;20302;-74
2021/12/01 08:37:39;;;;;;;2.20;1.93;;;;;;;10.64;85.77;98822.72;5051234;28;20200;-75
2021/12/01 08:40:08;;;;;;;2.50;2.30;;;;;;;10.80;85.61;98817.97;5054086;28;20196;-75
2021/12/01 08:42:34;;;;;;;3.03;2.70;;;;;;;10.84;85.44;98820.22;5052773;28;20296;-75
2021/12/01 08:45:01;;;;;;;2.03;1.83;;;;;;;10.74;85.54;98808.00;5054091;28;20211;-74
2021/12/01 08:47:29;;;;;;;3.13;2.80;;;;;;;10.84;85.51;98812.38;5054092;28;21086;-75
2021/12/01 08:49:56;;;;;;;3.00;2.17;;;;;;;10.76;85.75;98809.53;5052559;28;20200;-75
2021/12/01 08:52:23;;;;;;;2.03;1.63;;;;;;;10.73;85.74;98809.75;5053823;28;20203;-74
2021/12/01 08:54:50;;;;;;;4.00;2.53;;;;;;;10.88;85.21;98805.97;5053954;28;20196;-75
2021/12/01 08:57:18;;;;;;;2.00;1.47;;;;;;;10.84;85.23;98812.38;5053878;28;20202;-75
2021/12/01 08:59:47;;;;;;;3.40;3.10;;;;;;;11.10;85.00;98796.44;5043185;28;20571;-75
2021/12/01 09:02:14;;;;;;;2.30;2.07;;;;;;;10.91;84.92;98790.06;5042841;28;20228;-75
2021/12/01 09:04:40;;;;;;;3.77;2.73;;;;;;;11.12;84.60;98795.34;5043170;28;20190;-75
2021/12/01 09:07:06;;;;;;;4.10;3.00;;;;;;;11.09;84.55;98807.88;5044215;28;20196;-75
2021/12/01 09:09:33;;;;;;;4.27;3.63;;;;;;;11.17;84.26;98795.84;5051143;28;20568;-75
2021/12/01 09:12:00;;;;;;;4.93;3.23;;;;;;;11.23;84.10;98791.91;5052163;28;20273;-75
2021/12/01 09:14:28;;;;;;;5.17;2.57;;;;;;;11.14;83.93;98787.41;5053532;28;20198;-75
2021/12/01 09:16:56;;;;;;;4.00;3.27;;;;;;;11.23;83.87;98789.31;5043988;28;20667;-75
2021/12/01 09:19:23;;;;;;;3.83;2.47;;;;;;;11.16;83.99;98783.72;5043659;28;20594;-75
2021/12/01 09:21:50;;;;;;;3.07;2.47;;;;;;;11.19;83.87;98783.47;5041587;28;20260;-75
2021/12/01 09:24:17;;;;;;;3.00;2.20;;;;;;;11.27;83.26;98796.78;5044680;28;20553;-75
2021/12/01 09:26:44;;;;;;;1.20;1.10;;;;;;;11.21;83.16;98781.56;5041419;28;20628;-75
2021/12/01 09:29:11;;;;;;;4.03;2.63;;;;;;;11.24;83.32;98789.16;5042536;28;20193;-75
2021/12/01 09:31:39;;;;;;;3.47;2.17;;;;;;;11.29;83.26;98794.06;5034822;28;20242;-75
2021/12/01 09:34:05;;;;;;;2.33;1.40;;;;;;;11.30;83.07;98791.28;5031860;28;20206;-75
2021/12/01 09:36:32;;;;;;;2.00;1.80;;;;;;;11.30;83.17;98798.31;5031733;28;20196;-75
2021/12/01 09:38:58;;;;;;;1.93;1.43;;;;;;;11.35;83.17;98804.00;5031835;28;20432;-74
2021/12/01 09:41:26;;;;;;;3.13;2.63;;;;;;;11.32;83.40;98815.53;5041883;28;20196;-74
2021/12/01 09:43:53;;;;;;;2.70;2.03;;;;;;;11.24;83.45;98823.16;5048712;28;20284;-74
2021/12/01 09:46:20;;;;;;;1.57;1.20;;;;;;;11.18;83.46;98817.59;5040030;28;20232;-74
2021/12/01 09:48:48;;;;;;;1.37;1.27;;;;;;;11.25;82.73;98824.00;5040665;28;20190;-74
2021/12/01 09:51:17;;;;;;;1.30;1.20;;;;;;;11.20;82.65;98823.53;5039972;28;20230;-74
2021/12/01 09:53:44;;;;;;;3.70;1.00;;;;;;;11.18;81.34;98831.50;5040778;28;20230;-74
2021/12/01 09:56:10;;;;;;;4.57;1.87;;;;;;;11.18;81.75;98826.25;5047597;28;20556;-74
2021/12/01 09:58:38;;;;;;;1.63;0.90;;;;;;;11.12;81.15;98825.94;5041623;28;20361;-74
2021/12/01 10:01:06;;;;;;;1.80;1.07;;;;;;;11.09;81.03;98819.16;5039995;28;20291;-74
2021/12/01 10:03:33;;;;;;;0.83;0.67;;;;;;;11.05;80.84;98804.66;5041994;28;20246;-74
2021/12/01 10:06:03;;;;;;;0.67;0.67;;;;;;;11.02;80.56;98804.88;5040360;28;20222;-75
2021/12/01 10:08:34;;;;;;;3.40;1.27;;;;;;;11.00;80.41;98801.56;5032597;28;20204;-75
2021/12/01 10:11:04;;;;;;;2.43;1.00;;;;;;;10.95;80.38;98801.91;5031251;28;20208;-75
2021/12/01 10:13:33;;;;;;;4.20;1.63;;;;;;;11.03;80.84;98794.28;5032495;28;20227;-75
2021/12/01 10:16:01;;;;;;;6.50;1.60;;;;;;;11.01;80.74;98811.06;5032456;28;20216;-75
2021/12/01 10:18:29;;;;;;;2.53;1.10;;;;;;;10.99;80.94;98808.59;5030990;28;20204;-75
2021/12/01 10:21:06;;;;;;;5.03;1.47;;;;;;;11.17;80.92;98806.31;5032381;28;20192;-75
2021/12/01 10:23:33;;;;;;;1.00;0.93;;;;;;;11.14;80.51;98808.34;5047141;28;20369;-75
2021/12/01 10:26:08;;;;;;;2.73;1.33;;;;;;;11.22;80.19;98817.25;5052073;28;20208;-75
2021/12/01 10:28:37;;;;;;;2.30;0.93;;;;;;;11.22;80.11;98814.63;5051946;28;20195;-75
2021/12/01 10:31:04;;;;;;;1.93;1.13;;;;;;;11.27;79.61;98807.22;5052239;28;20187;-75
2021/12/01 10:33:31;;;;;;;1.87;0.50;;;;;;;11.18;79.56;98812.34;5050740;28;20667;-75
2021/12/01 10:36:00;;;;;;;4.33;0.90;;;;;;;11.25;79.46;98819.63;5050662;28;20211;-75
2021/12/01 10:38:30;;;;;;;1.80;0.80;;;;;;;11.18;79.01;98810.56;5052005;28;20270;-76
2021/12/01 10:41:04;;;;;;;3.17;1.00;;;;;;;11.27;78.88;98812.47;5051975;28;20188;-75
2021/12/01 10:43:39;;;;;;;17.73;2.27;;;;;;;11.38;79.39;98801.97;5051888;28;20195;-75
2021/12/01 10:46:11;;;;;;;2.50;1.00;;;;;;;11.44;78.42;98806.72;5051883;28;20203;-76
2021/12/01 10:48:39;;;;;;;8.70;1.67;;;;;;;11.58;78.15;98801.22;5051909;28;20690;-75
2021/12/01 10:51:06;;;;;;;3.13;0.97;;;;;;;11.54;77.88;98793.75;5050553;28;20211;-75
2021/12/01 10:53:34;;;;;;;0.97;0.40;;;;;;;11.35;78.09;98806.63;5050495;28;20653;-75
2021/12/01 10:56:03;;;;;;;2.70;1.07;;;;;;;11.38;79.40;98809.00;5050398;28;20231;-75
2021/12/01 10:58:35;;;;;;;12.43;1.27;;;;;;;11.24;79.65;98812.72;5051848;28;20660;-75
2021/12/01 11:01:03;;;;;;;2.37;0.60;;;;;;;11.26;79.76;98812.59;5051682;28;21003;-75
2021/12/01 11:03:32;;;;;;;2.20;0.93;;;;;;;11.18;80.07;98820.19;5051645;28;20196;-74
2021/12/01 11:06:09;;;;;;;2.10;0.70;;;;;;;10.99;80.72;98808.59;5051770;28;20665;-74
2021/12/01 11:08:39;;;;;;;2.13;0.50;;;;;;;10.91;81.38;98812.75;5031491;28;20194;-74
2021/12/01 11:11:09;;;;;;;2.97;0.93;;;;;;;10.91;81.64;98818.81;5031478;28;20211;-74
2021/12/01 11:13:38;;;;;;;3.57;0.97;;;;;;;10.96;81.69;98819.28;5038984;28;20193;-74
2021/12/01 11:16:07;;;;;;;1.60;0.60;;;;;;;10.93;81.74;98811.66;5041222;28;20187;-74
2021/12/01 11:18:36;;;;;;;1.20;0.40;;;;;;;10.67;81.89;98815.47;5042345;28;20187;-74
2021/12/01 11:21:08;;;;;;;1.40;0.50;;;;;;;10.77;81.62;98820.81;5039662;28;20200;-74
2021/12/01 11:23:36;;;;;;;1.03;0.50;;;;;;;10.61;81.50;98822.97;5043017;28;20234;-74
2021/12/01 11:26:07;;;;;;;0.40;0.30;;;;;;;10.65;79.92;98817.38;5039505;28;20262;-75
2021/12/01 11:28:37;;;;;;;0.70;0.40;;;;;;;10.64;79.97;98810.47;5042207;28;20267;-75
2021/12/01 11:31:06;;;;;;;1.87;0.60;;;;;;;10.53;80.01;98802.63;5046730;28;20708;-75
2021/12/01 11:33:33;;;;;;;1.00;0.60;;;;;;;10.62;79.85;98803.69;5040076;28;20193;-75
2021/12/01 11:36:03;;;;;;;0.93;0.50;;;;;;;10.81;80.09;98809.19;5040497;28;20296;-75
2021/12/01 11:38:30;;;;;;;0.37;0.30;;;;;;;10.75;79.65;98804.44;5031927;28;20540;-75